Flight Track Log - Related Links

Times and Time Zones

All times are in EDT time to prevent confusion due to time zone crossing. See the PKW653 flight status page for this flight to view local times or setup timezone preferences in your user account.

Time Position Orientation Groundspeed Altitude Reporting Facility
EDT Latitude Longitude Course Direction KTS MPH feet Rate Location/Type
Wed 09:46:49 AM 42.2514 -83.5481 307° West 136 157 1,500  Level Cleveland Center
Wed 09:47:15 AM 42.2653 -83.5731 307° West 148 170 2,300 1,645 Climbing Cleveland Center
Wed 09:47:51 AM 42.2781 -83.5958 307° West 155 178 3,200 1,714 Climbing Cleveland Center
Wed 09:48:53 AM 42.3081 -83.6414 312° West 161 185 5,100 1,645 Climbing Cleveland Center
Wed 09:49:55 AM 42.3425 -83.6872 315° West 170 196 6,600 919 Climbing Cleveland Center
Wed 09:50:57 AM 42.3744 -83.7483 305° West 208 239 7,000 194 Climbing Cleveland Center
Wed 09:51:59 AM 42.3508 -83.8506 253° West 241 277 7,000  Level Cleveland Center
Wed 09:53:01 AM 42.3308 -83.9383 253° West 246 283 7,000 290 Level Cleveland Center
Wed 09:54:03 AM 42.3100 -84.0236 252° West 242 278 7,600 774 Climbing Cleveland Center
Wed 09:55:05 AM 42.2847 -84.1008 246° West 230 265 8,600 1,073 Climbing Cleveland Center
Wed 09:56:06 AM 42.2656 -84.1792 252° West 222 255 9,800 1,024 Climbing Cleveland Center
Wed 09:57:08 AM 42.2625 -84.2564 267° West 209 241 10,700 1,113 Climbing Cleveland Center
Wed 09:58:10 AM 42.2639 -84.3486 271° West 205 236 12,100 1,161 Climbing Cleveland Center
Wed 09:59:12 AM 42.2606 -84.4217 266° West 198 228 13,100 968 Climbing Cleveland Center
Wed 10:00:14 AM 42.2497 -84.4914 258° West 192 221 14,100 968 Climbing Cleveland Center
Wed 10:01:16 AM 42.2283 -84.5558 246° West 187 215 15,100 919 Climbing Cleveland Center
Wed 10:02:18 AM 42.2067 -84.6186 245° Southwest 187 215 16,000 871 Climbing Cleveland Center
Wed 10:03:20 AM 42.1836 -84.6831 244° Southwest 179 206 16,900 871 Climbing Cleveland Center
Wed 10:04:22 AM 42.1639 -84.7436 246° West 175 201 17,800 532 Climbing Cleveland Center
Wed 10:05:24 AM 42.1431 -84.8042 245° Southwest 179 206 18,000 98 Climbing Cleveland Center
Wed 10:06:25 AM 42.1211 -84.8739 247° West 198 228 18,000  Level Cleveland Center
Wed 10:07:27 AM 42.0922 -84.9661 247° West 221 254 18,000 48 Level Cleveland Center
Wed 10:08:29 AM 42.0664 -85.0447 246° West 229 264 18,100  Climbing Cleveland Center
Wed 10:09:31 AM 42.0400 -85.1233 246° West 231 266 18,000 -48 Descending Cleveland Center
Wed 10:10:33 AM 42.0142 -85.2053 247° West 237 273 18,000  Level Cleveland Center
Wed 10:11:35 AM 41.9864 -85.2847 245° Southwest 237 273 18,000 48 Level Cleveland Center
Wed 10:12:37 AM 41.9600 -85.3656 246° West 237 273 18,100 48 Climbing Cleveland Center
Wed 10:13:39 AM 41.9247 -85.4603 243° Southwest 238 274 18,100  Level Cleveland Center
Wed 10:14:40 AM 41.8975 -85.5411 246° West 239 275 18,100 -49 Level Cleveland Center
Wed 10:15:42 AM 41.8711 -85.6219 246° West 239 275 18,000  Descending Cleveland Center
Wed 10:16:44 AM 41.8458 -85.7036 247° West 240 276 18,100  Climbing Cleveland Center
Wed 10:17:46 AM 41.8161 -85.7825 243° Southwest 239 275 18,000 -48 Descending Cleveland Center
Wed 10:18:48 AM 41.7833 -85.8797 246° West 240 276 18,000  Level Cleveland Center
Wed 10:19:50 AM 41.7561 -85.9611 246° West 240 276 18,000  Level Cleveland Center
Wed 10:20:52 AM 41.7272 -86.0414 244° Southwest 240 276 18,000  Level Cleveland Center
Wed 10:22:22 AM 41.6822 -86.1722 245° Southwest 241 277 18,000  Level Chicago Center
Wed 10:23:24 AM 41.6544 -86.2533 245° Southwest 241 277 18,000  Level Chicago Center
Wed 10:24:26 AM 41.6261 -86.3347 245° Southwest 243 280 18,000 48 Level Chicago Center
Wed 10:25:28 AM 41.6014 -86.4172 248° West 241 277 18,100  Climbing Chicago Center
Wed 10:26:30 AM 41.5878 -86.5047 258° West 242 278 18,000 -48 Descending Chicago Center
Wed 10:27:32 AM 41.5733 -86.5928 258° West 243 280 18,000  Level Chicago Center
Wed 10:28:34 AM 41.5400 -86.6900 245° Southwest 241 277 18,000  Level Chicago Center
Wed 10:29:37 AM 41.5139 -86.7664 245° Southwest 246 283 18,000  Level Chicago Center
Wed 10:30:39 AM 41.4839 -86.8469 244° Southwest 244 281 18,000  Level Chicago Center
Wed 10:31:41 AM 41.4503 -86.9456 246° West 245 282 18,000  Level Chicago Center
Wed 10:32:43 AM 41.4236 -87.0283 247° West 244 281 18,000  Level Chicago Center
Wed 10:33:45 AM 41.3961 -87.1117 246° West 246 283 18,000  Level Chicago Center
Wed 10:34:47 AM 41.3700 -87.1947 247° West 244 281 18,000  Level Chicago Center
Wed 10:35:49 AM 41.3367 -87.2731 240° Southwest 243 280 18,000  Level Chicago Center
Wed 10:36:51 AM 41.2994 -87.3700 243° Southwest 245 282 18,000  Level Chicago Center
Wed 10:37:53 AM 41.2686 -87.4500 243° Southwest 244 281 18,000  Level Chicago Center
Wed 10:38:55 AM 41.2392 -87.5308 244° Southwest 243 280 18,000  Level Chicago Center
Wed 10:39:57 AM 41.2197 -87.6178 253° West 245 282 18,000 48 Level Chicago Center
Wed 10:40:59 AM 41.1911 -87.6986 245° Southwest 242 278 18,100  Climbing Chicago Center
Wed 10:42:02 AM 41.1581 -87.7781 241° Southwest 245 282 18,000 -48 Descending Chicago Center
Wed 10:43:04 AM 41.1189 -87.8753 242° Southwest 248 285 18,000  Level Chicago Center
Wed 10:44:06 AM 41.0864 -87.9550 242° Southwest 247 284 18,000  Level Chicago Center
Wed 10:45:08 AM 41.0531 -88.0350 241° Southwest 248 285 18,000  Level Chicago Center
Wed 10:46:10 AM 41.0192 -88.1156 241° Southwest 249 287 18,000  Level Chicago Center
Wed 10:47:12 AM 40.9892 -88.1964 244° Southwest 246 283 18,000  Level Chicago Center
Wed 10:48:14 AM 40.9608 -88.2814 246° West 250 288 18,000 48 Level Chicago Center
Wed 10:49:16 AM 40.9217 -88.3781 242° Southwest 248 285 18,100 48 Climbing Chicago Center
Wed 10:50:18 AM 40.8925 -88.4603 245° Southwest 248 285 18,100 -48 Level Chicago Center
Wed 10:51:20 AM 40.8614 -88.5442 244° Southwest 251 289 18,000 -48 Descending Chicago Center
Wed 10:52:22 AM 40.8303 -88.6275 244° Southwest 254 292 18,000  Level Chicago Center
Wed 10:53:24 AM 40.8003 -88.7092 244° Southwest 250 288 18,000  Level Chicago Center
Wed 10:54:26 AM 40.7719 -88.7931 246° West 250 288 18,000  Level Chicago Center
Wed 10:55:28 AM 40.7300 -88.8881 240° Southwest 250 288 18,000  Level Chicago Center
Wed 10:56:30 AM 40.6972 -88.9661 241° Southwest 246 283 18,000  Level Chicago Center
Wed 10:57:32 AM 40.6678 -89.0508 245° Southwest 250 288 18,000  Level Chicago Center
Wed 10:58:34 AM 40.6342 -89.1322 241° Southwest 253 291 18,000  Level Chicago Center
Wed 10:59:35 AM 40.6069 -89.2189 248° West 255 293 18,000 49 Level Chicago Center
Wed 11:00:37 AM 40.5708 -89.2992 239° Southwest 253 291 18,100  Climbing Chicago Center
Wed 11:01:39 AM 40.5344 -89.3994 245° Southwest 254 292 18,000  Descending Chicago Center
Wed 11:02:41 AM 40.5022 -89.4819 243° Southwest 254 292 18,100  Climbing Chicago Center
Wed 11:03:43 AM 40.4728 -89.5653 245° Southwest 254 292 18,000  Descending Chicago Center
Wed 11:04:45 AM 40.4397 -89.6472 242° Southwest 254 292 18,100  Climbing Chicago Center
Wed 11:05:47 AM 40.4081 -89.7314 244° Southwest 256 295 18,000  Descending Chicago Center
Wed 11:06:49 AM 40.3681 -89.8292 242° Southwest 255 293 18,100 49 Climbing Chicago Center
Wed 11:07:50 AM 40.3381 -89.8983 240° Southwest 256 295 18,100  Level Chicago Center
Wed 11:08:52 AM 40.2975 -89.9958 241° Southwest 256 295 18,100  Level Chicago Center
Wed 11:09:54 AM 40.2644 -90.0786 242° Southwest 258 297 18,100 -48 Level Chicago Center
Wed 11:10:56 AM 40.2322 -90.1633 244° Southwest 260 299 18,000 -48 Descending Chicago Center
Wed 11:11:58 AM 40.1994 -90.2461 243° Southwest 258 297 18,000  Level Chicago Center
Wed 11:13:00 AM 40.1661 -90.3289 242° Southwest 258 297 18,000  Level Chicago Center
Wed 11:14:02 AM 40.1325 -90.4117 242° Southwest 258 297 18,000  Level Chicago Center
Wed 11:15:04 AM 40.0917 -90.5103 242° Southwest 259 298 18,000  Level Chicago Center
Wed 11:16:05 AM 40.0578 -90.5925 242° Southwest 258 297 18,000  Level Chicago Center
Wed 11:17:07 AM 40.0242 -90.6761 242° Southwest 261 300 18,000  Level Chicago Center
Wed 11:18:09 AM 39.9917 -90.7600 243° Southwest 261 300 18,000  Level Chicago Center
Wed 11:19:11 AM 39.9586 -90.8433 243° Southwest 260 299 18,000  Level Chicago Center
Wed 11:20:13 AM 39.9147 -90.9408 240° Southwest 260 299 18,000  Level Chicago Center
Wed 11:21:15 AM 39.8819 -91.0244 243° Southwest 261 300 18,000 48 Level Chicago Center
Wed 11:22:17 AM 39.8483 -91.1069 242° Southwest 260 299 18,100  Climbing Chicago Center
Wed 11:23:19 AM 39.8131 -91.1897 241° Southwest 261 300 18,000  Descending Chicago Center
Wed 11:24:21 AM 39.7775 -91.2725 241° Southwest 263 303 18,100 48 Climbing Chicago Center
Wed 11:25:23 AM 39.7411 -91.3561 241° Southwest 264 304 18,100 -48 Level Chicago Center
Wed 11:26:25 AM 39.6981 -91.4569 241° Southwest 268 308 18,000 -42 Descending Chicago Center
Wed 11:27:46 AM 39.6581 -91.5558 242° Southwest 263 303 18,000 41 Level Kansas City Center
Wed 11:28:50 AM 39.6164 -91.6525 241° Southwest 261 300 18,100 48 Climbing Kansas City Center
Wed 11:29:51 AM 39.5825 -91.7364 242° Southwest 261 300 18,100 -48 Level Kansas City Center
Wed 11:30:55 AM 39.5486 -91.8167 241° Southwest 260 299 18,000 -48 Descending Kansas City Center
Wed 11:31:55 AM 39.5114 -91.8969 239° Southwest 260 299 18,000  Level Kansas City Center
Wed 11:32:59 AM 39.4783 -91.9775 242° Southwest 259 298 18,000 48 Level Kansas City Center
Wed 11:34:00 AM 39.4369 -92.0767 242° Southwest 261 300 18,100 48 Climbing Kansas City Center
Wed 11:35:03 AM 39.3997 -92.1564 239° Southwest 260 299 18,100  Level Kansas City Center
Wed 11:36:04 AM 39.3667 -92.2381 242° Southwest 258 297 18,100 -49 Level Kansas City Center
Wed 11:37:05 AM 39.3325 -92.3208 242° Southwest 261 300 18,000  Descending Kansas City Center
Wed 11:38:09 AM 39.2994 -92.4025 242° Southwest 260 299 18,100  Climbing Kansas City Center
Wed 11:39:11 AM 39.2578 -92.4914 239° Southwest 259 298 18,000 -49 Descending Kansas City Center
Wed 11:40:12 AM 39.2242 -92.5731 242° Southwest 257 296 18,000 48 Level Kansas City Center
Wed 11:41:15 AM 39.1897 -92.6514 240° Southwest 255 293 18,100  Climbing Kansas City Center
Wed 11:42:16 AM 39.1536 -92.7356 241° Southwest 255 293 18,000 -48 Descending Kansas City Center
Wed 11:43:19 AM 39.1203 -92.8158 242° Southwest 255 293 18,000  Level Kansas City Center
Wed 11:44:20 AM 39.0836 -92.8942 239° Southwest 256 295 18,000  Level Kansas City Center
Wed 11:45:22 AM 39.0414 -92.9875 240° Southwest 255 293 18,000  Level Kansas City Center
Wed 11:46:25 AM 39.0064 -93.0667 240° Southwest 255 293 18,000  Level Kansas City Center
Wed 11:47:26 AM 38.9711 -93.1447 240° Southwest 257 296 18,000 48 Level Kansas City Center
Wed 11:48:30 AM 38.9381 -93.2239 242° Southwest 253 291 18,100  Climbing Kansas City Center
Wed 11:49:31 AM 38.8939 -93.3181 239° Southwest 255 293 18,000 -48 Descending Kansas City Center
Wed 11:50:34 AM 38.8586 -93.3989 241° Southwest 257 296 18,000  Level Kansas City Center
Wed 11:51:36 AM 38.8211 -93.4806 240° Southwest 262 302 18,000  Level Kansas City Center
Wed 11:52:37 AM 38.7858 -93.5606 241° Southwest 260 299 18,000 49 Level Kansas City Center
Wed 11:53:38 AM 38.7522 -93.6400 242° Southwest 256 295 18,100  Climbing Kansas City Center
Wed 11:54:42 AM 38.7175 -93.7194 241° Southwest 256 295 18,000 -48 Descending Kansas City Center
Wed 11:55:42 AM 38.6800 -93.8053 241° Southwest 255 293 18,000 48 Level Kansas City Center
Wed 11:56:47 AM 38.6394 -93.8939 240° Southwest 257 296 18,100 48 Climbing Kansas City Center
Wed 11:57:47 AM 38.6036 -93.9697 239° Southwest 258 297 18,100  Level Kansas City Center
Wed 11:58:48 AM 38.5661 -94.0567 241° Southwest 255 293 18,100 -48 Level Kansas City Center
Wed 11:59:52 AM 38.5306 -94.1325 239° Southwest 257 296 18,000  Descending Kansas City Center
Wed 12:00:55 PM 38.4908 -94.2208 240° Southwest 257 296 18,100  Climbing Kansas City Center
Wed 12:01:55 PM 38.4572 -94.2975 241° Southwest 258 297 18,000  Descending Kansas City Center
Wed 12:02:57 PM 38.4206 -94.3703 237° Southwest 256 295 18,100  Climbing Kansas City Center
Wed 12:04:00 PM 38.3806 -94.4600 240° Southwest 258 297 18,000 -49 Descending Kansas City Center
Wed 12:05:00 PM 38.3467 -94.5333 240° Southwest 254 292 18,000  Level Kansas City Center
Wed 12:06:05 PM 38.3056 -94.6211 239° Southwest 258 297 18,000  Level Kansas City Center
Wed 12:07:06 PM 38.2708 -94.6950 239° Southwest 254 292 18,000  Level Kansas City Center
Wed 12:08:06 PM 38.2303 -94.7833 240° Southwest 257 296 18,000 48 Level Kansas City Center
Wed 12:09:11 PM 38.1958 -94.8625 241° Southwest 262 302 18,100  Climbing Kansas City Center
Wed 12:10:11 PM 38.1533 -94.9500 238° Southwest 261 300 18,000 -48 Descending Kansas City Center
Wed 12:11:15 PM 38.1178 -95.0231 238° Southwest 256 295 18,000  Level Kansas City Center
Wed 12:12:16 PM 38.0775 -95.1106 240° Southwest 257 296 18,000 48 Level Kansas City Center
Wed 12:13:20 PM 38.0425 -95.1833 239° Southwest 253 291 18,100 48 Climbing Kansas City Center
Wed 12:14:21 PM 38.0086 -95.2569 240° Southwest 253 291 18,100  Level Kansas City Center
Wed 12:15:21 PM 37.9689 -95.3456 240° Southwest 258 297 18,100 -48 Level Kansas City Center
Wed 12:16:26 PM 37.9319 -95.4242 239° Southwest 260 299 18,000 -48 Descending Kansas City Center
Wed 12:17:26 PM 37.8939 -95.4981 237° Southwest 255 293 18,000  Level Kansas City Center
Wed 12:18:30 PM 37.8564 -95.5739 238° Southwest 254 292 18,000  Level Kansas City Center
Wed 12:19:30 PM 37.8142 -95.6661 240° Southwest 253 291 18,000  Level Kansas City Center
Wed 12:20:34 PM 37.7758 -95.7436 238° Southwest 257 296 18,000 48 Level Kansas City Center
Wed 12:21:34 PM 37.7419 -95.8253 242° Southwest 260 299 18,100 48 Climbing Kansas City Center
Wed 12:22:38 PM 37.7044 -95.9003 238° Southwest 257 296 18,100  Level Kansas City Center
Wed 12:23:40 PM 37.6644 -95.9767 237° Southwest 259 298 18,100  Level Kansas City Center
Wed 12:24:40 PM 37.6256 -96.0519 237° Southwest 259 298 18,100 -49 Level Kansas City Center
Wed 12:25:42 PM 37.5814 -96.1486 240° Southwest 260 299 18,000 -48 Descending Kansas City Center
Wed 12:26:46 PM 37.5428 -96.2244 237° Southwest 259 298 18,000 48 Level Kansas City Center
Wed 12:27:46 PM 37.5036 -96.2981 236° Southwest 256 295 18,100 48 Climbing Kansas City Center
Wed 12:28:50 PM 37.4642 -96.3767 238° Southwest 260 299 18,100 -48 Level Kansas City Center
Wed 12:29:51 PM 37.4306 -96.4572 242° Southwest 259 298 18,000  Descending Kansas City Center
Wed 12:30:55 PM 37.3936 -96.5333 239° Southwest 255 293 18,100  Climbing Kansas City Center
Wed 12:31:56 PM 37.3558 -96.6083 238° Southwest 254 292 18,000 -49 Descending Kansas City Center
Wed 12:32:57 PM 37.3192 -96.6847 239° Southwest 254 292 18,000  Level Kansas City Center
Wed 12:34:01 PM 37.2753 -96.7753 239° Southwest 253 291 18,000  Level Kansas City Center
Wed 12:35:01 PM 37.2383 -96.8492 238° Southwest 251 289 18,000  Level Kansas City Center
Wed 12:36:05 PM 37.2017 -96.9250 239° Southwest 252 290 18,000 48 Level Kansas City Center
Wed 12:37:05 PM 37.1647 -97.0008 239° Southwest 254 292 18,100  Climbing Kansas City Center
Wed 12:38:09 PM 37.1283 -97.0753 239° Southwest 252 290 18,000 -55 Descending Kansas City Center
Wed 12:38:54 PM 37.0922 -97.1433 236° Southwest 254 292 18,000  Level Kansas City Center
Wed 12:39:09 PM 37.0892 -97.1511 244° Southwest 255 293 18,000 111 Level Kansas City Center
Wed 12:39:48 PM 37.0572 -97.2075 235° Southwest 254 292 18,100  Climbing Kansas City Center
Wed 12:40:12 PM 37.0442 -97.2422 245° Southwest 256 295 18,000  Descending Kansas City Center
Wed 12:40:48 PM 37.0194 -97.2878 236° Southwest 254 292 18,100  Climbing Kansas City Center
Wed 12:41:12 PM 37.0053 -97.3175 239° Southwest 256 295 18,000 -98 Descending Kansas City Center
Wed 12:41:49 PM 36.9792 -97.3656 236° Southwest 255 293 18,000  Level Kansas City Center
Wed 12:42:16 PM 36.9683 -97.3928 244° Southwest 255 293 18,000  Level Kansas City Center
Wed 12:42:51 PM 36.9447 -97.4400 238° Southwest 255 293 18,000  Level Kansas City Center
Wed 12:43:19 PM 36.9308 -97.4694 239° Southwest 257 296 18,000  Level Kansas City Center
Wed 12:43:52 PM 36.9044 -97.5178 236° Southwest 256 295 18,000  Level Kansas City Center
Wed 12:44:19 PM 36.8925 -97.5444 241° Southwest 257 296 18,000  Level Kansas City Center
Wed 12:44:46 PM 36.8694 -97.5844 234° Southwest 256 295 18,000  Level Kansas City Center
Wed 12:45:23 PM 36.8544 -97.6181 241° Southwest 255 293 18,000 98 Level Kansas City Center
Wed 12:45:47 PM 36.8311 -97.6617 236° Southwest 254 292 18,100  Climbing Kansas City Center
Wed 12:46:24 PM 36.8169 -97.6925 240° Southwest 253 291 18,000  Descending Kansas City Center
Wed 12:46:48 PM 36.7944 -97.7333 235° Southwest 253 291 18,100 95 Climbing Kansas City Center
Wed 12:47:27 PM 36.7711 -97.7831 240° Southwest 255 293 18,100  Level Kansas City Center
Wed 12:47:48 PM 36.7539 -97.8083 230° Southwest 253 291 18,100  Level Kansas City Center
Wed 12:48:28 PM 36.7336 -97.8561 242° Southwest 253 291 18,100  Level Kansas City Center
Wed 12:48:55 PM 36.7139 -97.8933 237° Southwest 253 291 18,100  Level Kansas City Center
Wed 12:49:31 PM 36.6961 -97.9311 240° Southwest 253 291 18,100  Level Kansas City Center
Wed 12:49:55 PM 36.6731 -97.9706 234° Southwest 255 293 18,100 -98 Level Kansas City Center
Wed 12:50:32 PM 36.6567 -98.0044 239° Southwest 254 292 18,000 -98 Descending Kansas City Center
Wed 12:50:56 PM 36.6383 -98.0417 238° Southwest 255 293 18,000  Level Kansas City Center
Wed 12:51:36 PM 36.6181 -98.0794 236° Southwest 255 293 18,000  Level Kansas City Center
Wed 12:52:03 PM 36.5872 -98.1200 227° Southwest 254 292 18,000  Level Kansas City Center
Wed 12:52:36 PM 36.5736 -98.1486 239° Southwest 255 293 18,000  Level Kansas City Center
Wed 12:52:57 PM 36.5494 -98.1811 227° Southwest 253 291 18,000 97 Level Kansas City Center
Wed 12:53:38 PM 36.5192 -98.2286 232° Southwest 253 291 18,100 95 Climbing Kansas City Center
Wed 12:54:00 PM 36.5039 -98.2506 229° Southwest 251 289 18,100 -94 Level Kansas City Center
Wed 12:54:42 PM 36.4753 -98.2972 233° Southwest 252 290 18,000 -91 Descending Kansas City Center
Wed 12:55:06 PM 36.4547 -98.3258 228° Southwest 252 290 18,000  Level Kansas City Center
Wed 12:55:42 PM 36.4314 -98.3656 234° Southwest 253 291 18,000  Level Kansas City Center
Wed 12:56:06 PM 36.4092 -98.3978 229° Southwest 252 290 18,000  Level Kansas City Center
Wed 12:56:44 PM 36.3875 -98.4325 232° Southwest 251 289 18,000 59 Level Kansas City Center
Wed 12:57:47 PM 36.3433 -98.4986 230° Southwest 248 285 18,100 71 Climbing Kansas City Center
Wed 12:58:08 PM 36.3217 -98.5308 230° Southwest 249 287 18,100  Level Kansas City Center
Wed 12:58:47 PM 36.2981 -98.5633 228° Southwest 247 284 18,100  Level Kansas City Center
Wed 12:59:15 PM 36.2697 -98.6006 227° Southwest 246 283 18,100 -94 Level Kansas City Center
Wed 12:59:51 PM 36.2517 -98.6261 229° Southwest 246 283 18,000  Descending Kansas City Center
Wed 01:00:17 PM 36.2256 -98.6619 228° Southwest 247 284 18,100 97 Climbing Kansas City Center
Wed 01:00:53 PM 36.1994 -98.7047 233° Southwest 246 283 18,100 -100 Level Kansas City Center
Wed 01:01:17 PM 36.1800 -98.7308 227° Southwest 246 283 18,000 -98 Descending Kansas City Center
Wed 01:01:54 PM 36.1581 -98.7664 233° Southwest 246 283 18,000  Level Kansas City Center
Wed 01:02:12 PM 36.1439 -98.7886 232° Southwest 245 282 18,000  Level Kansas City Center
Wed 01:02:57 PM 36.1164 -98.8325 232° Southwest 245 282 18,000 100 Level Kansas City Center
Wed 01:03:12 PM 36.1000 -98.8572 231° Southwest 245 282 18,100  Climbing Kansas City Center
Wed 01:03:58 PM 36.0747 -98.8978 232° Southwest 244 281 18,000 -90 Descending Kansas City Center
Wed 01:04:19 PM 36.0522 -98.9289 228° Southwest 243 280 18,000 95 Level Kansas City Center
Wed 01:05:01 PM 36.0219 -98.9736 230° Southwest 243 280 18,100  Climbing Kansas City Center
Wed 01:05:19 PM 36.0081 -98.9922 227° Southwest 242 278 18,000 -94 Descending Kansas City Center
Wed 01:06:05 PM 35.9803 -99.0389 234° Southwest 242 278 18,000  Level Kansas City Center
Wed 01:06:20 PM 35.9683 -99.0631 239° Southwest 245 282 18,000  Level Kansas City Center
Wed 01:07:05 PM 35.9447 -99.1094 238° Southwest 243 280 18,000  Level Kansas City Center
Wed 01:08:09 PM 35.9100 -99.1806 239° Southwest 243 280 18,000  Level Kansas City Center
Wed 01:09:09 PM 35.8739 -99.2517 238° Southwest 244 281 18,000  Level Kansas City Center
Wed 01:10:11 PM 35.8375 -99.3203 237° Southwest 241 277 18,000  Level Kansas City Center
Wed 01:11:14 PM 35.7944 -99.4044 238° Southwest 242 278 18,000  Level Kansas City Center
Wed 01:12:15 PM 35.7581 -99.4769 238° Southwest 244 281 18,000  Level Kansas City Center
Wed 01:13:18 PM 35.7228 -99.5472 238° Southwest 243 280 18,000  Level Kansas City Center
Wed 01:14:19 PM 35.6864 -99.6189 238° Southwest 244 281 18,000  Level Kansas City Center
Wed 01:15:23 PM 35.6469 -99.6878 235° Southwest 245 282 18,000  Level Kansas City Center
Wed 01:16:25 PM 35.6036 -99.7733 238° Southwest 248 285 18,000 -48 Level Albuquerque Center
Wed 01:17:27 PM 35.5664 -99.8450 237° Southwest 248 285 17,900 48 Descending Albuquerque Center
Wed 01:18:29 PM 35.5281 -99.9169 237° Southwest 250 288 18,100 48 Climbing Albuquerque Center
Wed 01:19:31 PM 35.4919 -99.9911 239° Southwest 252 290 18,000 -48 Descending Albuquerque Center
Wed 01:20:33 PM 35.4533 -100.0642 237° Southwest 253 291 18,000  Level Albuquerque Center
Wed 01:21:35 PM 35.4158 -100.1369 238° Southwest 253 291 18,000  Level Albuquerque Center
Wed 01:22:37 PM 35.3775 -100.2089 237° Southwest 251 289 18,000  Level Albuquerque Center
Wed 01:23:39 PM 35.3322 -100.2961 238° Southwest 252 290 18,000  Level Albuquerque Center
Wed 01:24:41 PM 35.2914 -100.3650 234° Southwest 249 287 18,000  Level Albuquerque Center
Wed 01:25:43 PM 35.2544 -100.4378 238° Southwest 251 289 18,000 48 Level Albuquerque Center
Wed 01:26:45 PM 35.2147 -100.5083 235° Southwest 251 289 18,100  Climbing Albuquerque Center
Wed 01:27:47 PM 35.1742 -100.5878 238° Southwest 252 290 18,000 -48 Descending Albuquerque Center
Wed 01:28:49 PM 35.1339 -100.6569 235° Southwest 251 289 18,000  Level Albuquerque Center
Wed 01:29:51 PM 35.0978 -100.7317 239° Southwest 255 293 18,000  Level Albuquerque Center
Wed 01:30:53 PM 35.0583 -100.8025 236° Southwest 252 290 18,000  Level Albuquerque Center
Wed 01:31:55 PM 35.0183 -100.8744 236° Southwest 254 292 18,000  Level Albuquerque Center
Wed 01:32:57 PM 34.9711 -100.9611 236° Southwest 256 295 18,000  Level Albuquerque Center
Wed 01:33:59 PM 34.9322 -101.0347 237° Southwest 257 296 18,000 48 Level Albuquerque Center
Wed 01:35:01 PM 34.8953 -101.1089 239° Southwest 256 295 18,100 48 Climbing Albuquerque Center
Wed 01:36:03 PM 34.8561 -101.1822 237° Southwest 256 295 18,100 -48 Level Albuquerque Center
Wed 01:37:05 PM 34.8142 -101.2525 234° Southwest 256 295 18,000 -48 Descending Albuquerque Center
Wed 01:38:07 PM 34.7744 -101.3239 236° Southwest 255 293 18,000 48 Level Albuquerque Center
Wed 01:39:09 PM 34.7342 -101.3950 235° Southwest 255 293 18,100 48 Climbing Albuquerque Center
Wed 01:40:11 PM 34.6894 -101.4842 239° Southwest 255 293 18,100 -48 Level Albuquerque Center
Wed 01:41:13 PM 34.6500 -101.5556 236° Southwest 256 295 18,000 -97 Descending Albuquerque Center
Wed 01:42:15 PM 34.6081 -101.6250 234° Southwest 254 292 17,900  Descending Albuquerque Center
Wed 01:43:17 PM 34.5703 -101.6958 237° Southwest 250 288 18,000 48 Climbing Albuquerque Center
Wed 01:44:19 PM 34.5325 -101.7683 238° Southwest 252 290 18,000 48 Level Albuquerque Center
Wed 01:45:21 PM 34.4911 -101.8372 234° Southwest 253 291 18,100 48 Climbing Albuquerque Center
Wed 01:46:23 PM 34.4419 -101.9231 235° Southwest 257 296 18,100  Level Albuquerque Center
Wed 01:47:25 PM 34.3997 -101.9914 233° Southwest 255 293 18,100 -49 Level Albuquerque Center
Wed 01:48:26 PM 34.3597 -102.0622 236° Southwest 253 291 18,000 -49 Descending Albuquerque Center
Wed 01:49:28 PM 34.3192 -102.1336 235° Southwest 255 293 18,000  Level Albuquerque Center
Wed 01:50:30 PM 34.2817 -102.2064 238° Southwest 254 292 18,000  Level Albuquerque Center
Wed 01:51:32 PM 34.2425 -102.2778 236° Southwest 256 295 18,000  Level Albuquerque Center
Wed 01:52:34 PM 34.2011 -102.3494 235° Southwest 257 296 18,000 48 Level Albuquerque Center
Wed 01:53:36 PM 34.1600 -102.4239 236° Southwest 261 300 18,100 48 Climbing Albuquerque Center
Wed 01:54:38 PM 34.1119 -102.5100 236° Southwest 261 300 18,100  Level Albuquerque Center
Wed 01:55:40 PM 34.0722 -102.5828 237° Southwest 261 300 18,100  Level Albuquerque Center
Wed 01:56:42 PM 34.0342 -102.6492 235° Southwest 255 293 18,100 -48 Level Albuquerque Center
Wed 01:57:44 PM 33.9939 -102.7208 236° Southwest 255 293 18,000 -48 Descending Albuquerque Center
Wed 01:58:46 PM 33.9508 -102.7956 235° Southwest 266 306 18,000  Level Albuquerque Center
Wed 01:59:48 PM 33.9122 -102.8639 236° Southwest 259 298 18,000  Level Albuquerque Center
Wed 02:00:50 PM 33.8608 -102.9472 233° Southwest 259 298 18,000 48 Level Albuquerque Center
Wed 02:01:52 PM 33.8214 -103.0197 237° Southwest 259 298 18,100  Climbing Albuquerque Center
Wed 02:02:54 PM 33.7819 -103.0933 237° Southwest 261 300 18,000 -49 Descending Albuquerque Center
Wed 02:03:55 PM 33.7400 -103.1633 234° Southwest 261 300 18,000  Level Albuquerque Center
Wed 02:04:57 PM 33.7008 -103.2342 236° Southwest 260 299 18,000  Level Albuquerque Center
Wed 02:05:59 PM 33.6514 -103.3239 237° Southwest 263 303 18,000  Level Albuquerque Center
Wed 02:07:01 PM 33.6086 -103.3922 233° Southwest 261 300 18,000  Level Albuquerque Center
Wed 02:08:03 PM 33.5675 -103.4631 235° Southwest 260 299 18,000  Level Albuquerque Center
Wed 02:09:05 PM 33.5242 -103.5333 234° Southwest 261 300 18,000  Level Albuquerque Center
Wed 02:09:17 PM 33.5156 -103.5478 234° Southwest 262 302 18,000  Level Albuquerque Center
Wed 02:10:19 PM 33.4761 -103.6208 237° Southwest 264 304 18,000  Level Albuquerque Center
Wed 02:11:21 PM 33.4311 -103.7022 236° Southwest 260 299 18,000 48 Level Albuquerque Center
Wed 02:12:23 PM 33.3811 -103.7758 231° Southwest 263 303 18,100  Climbing Albuquerque Center
Wed 02:13:25 PM 33.3444 -103.8489 239° Southwest 259 298 18,000  Descending Albuquerque Center
Wed 02:14:27 PM 33.3017 -103.9194 234° Southwest 262 302 18,100 49 Climbing Albuquerque Center
Wed 02:15:28 PM 33.2581 -103.9967 236° Southwest 261 300 18,100  Level Albuquerque Center
Wed 02:16:30 PM 33.2158 -104.0689 235° Southwest 264 304 18,100  Level Albuquerque Center
Wed 02:17:32 PM 33.1708 -104.1458 235° Southwest 263 303 18,100 -48 Level Albuquerque Center
Wed 02:18:34 PM 33.1267 -104.2150 233° Southwest 262 302 18,000  Descending Albuquerque Center
Wed 02:19:36 PM 33.0839 -104.2844 234° Southwest 260 299 18,100  Climbing Albuquerque Center
Wed 02:20:38 PM 33.0411 -104.3619 237° Southwest 260 299 18,000 -48 Descending Albuquerque Center
Wed 02:21:40 PM 32.9989 -104.4319 234° Southwest 259 298 18,000 48 Level Albuquerque Center
Wed 02:22:42 PM 32.9542 -104.5069 235° Southwest 258 297 18,100  Climbing Albuquerque Center
Wed 02:23:43 PM 32.9064 -104.5694 228° Southwest 257 296 18,000 -49 Descending Albuquerque Center
Wed 02:24:45 PM 32.8564 -104.6322 227° Southwest 259 298 18,000  Level Albuquerque Center
Wed 02:25:47 PM 32.8056 -104.6986 228° Southwest 254 292 18,000  Level Albuquerque Center
Wed 02:26:49 PM 32.7561 -104.7600 226° Southwest 256 295 18,000 48 Level Albuquerque Center
Wed 02:27:51 PM 32.7036 -104.8258 227° Southwest 255 293 18,100  Climbing Albuquerque Center
Wed 02:28:53 PM 32.6558 -104.8883 228° Southwest 256 295 18,000 -48 Descending Albuquerque Center
Wed 02:29:55 PM 32.6097 -104.9514 229° Southwest 254 292 18,000  Level Albuquerque Center
Wed 02:30:56 PM 32.5697 -105.0092 231° Southwest 256 295 18,000  Level Albuquerque Center
Wed 02:31:58 PM 32.5117 -105.0814 226° Southwest 253 291 18,000 48 Level Albuquerque Center
Wed 02:33:00 PM 32.4633 -105.1439 228° Southwest 255 293 18,100 -145 Climbing Albuquerque Center
Wed 02:34:02 PM 32.4072 -105.2022 221° Southwest 258 297 17,700 -629 Descending Albuquerque Center
Wed 02:35:04 PM 32.3553 -105.2686 227° Southwest 265 305 16,800 -976 Descending Albuquerque Center
Wed 02:36:05 PM 32.3056 -105.3397 230° Southwest 273 314 15,700 -1,113 Descending Albuquerque Center
Wed 02:36:41 PM 32.2619 -105.3881 223° Southwest 291 335 15,000 -1,065 Descending Albuquerque Center
Wed 02:37:07 PM 32.2514 -105.4108 241° Southwest 280 322 14,600 -982 Descending Albuquerque Center
Wed 02:37:36 PM 32.2122 -105.4536 223° Southwest 293 337 14,100 -871 Descending Albuquerque Center
Wed 02:38:09 PM 32.1967 -105.4814 237° Southwest 285 328 13,700 -885 Descending Albuquerque Center
Wed 02:38:37 PM 32.1589 -105.5228 223° Southwest 290 334 13,200 -1,065 Descending Albuquerque Center
Wed 02:39:11 PM 32.1253 -105.5589 222° Southwest 280 322 12,600 -917 Descending Albuquerque Center
Wed 02:39:49 PM 32.0981 -105.5964 229° Southwest 249 287 12,100 -581 Descending Albuquerque Center
Wed 02:40:13 PM 32.0772 -105.6164 219° Southwest 255 293 12,000 -98 Descending Albuquerque Center
Wed 02:40:50 PM 32.0522 -105.6483 227° Southwest 225 259 12,000  Level Albuquerque Center
Wed 02:41:15 PM 32.0325 -105.6733 227° Southwest 225 259 12,000  Level Albuquerque Center
Wed 02:41:51 PM 32.0108 -105.7017 228° Southwest 213 245 12,000  Level Albuquerque Center
Wed 02:42:17 PM 31.9914 -105.7253 226° Southwest 218 251 12,000 -91 Level Albuquerque Center
Wed 02:42:57 PM 31.9792 -105.7725 253° West 216 249 11,900 -387 Descending Albuquerque Center
Wed 02:43:19 PM 31.9722 -105.7925 248° West 216 249 11,600 -837 Descending Albuquerque Center
Wed 02:43:40 PM 31.9622 -105.8194 246° West 229 264 11,300 -774 Descending Albuquerque Center
Wed 02:44:21 PM 31.9444 -105.8672 246° West 228 262 10,800 -889 Descending Albuquerque Center
Wed 02:44:34 PM 31.9403 -105.8853 255° West 233 268 10,500 -1,065 Descending Albuquerque Center
Wed 02:45:23 PM 31.9206 -105.9408 247° West 234 269 9,700 -1,082 Descending Albuquerque Center
Wed 02:45:35 PM 31.9150 -105.9567 248° West 234 269 9,400 -787 Descending Albuquerque Center
Wed 02:46:24 PM 31.8956 -106.0178 249° West 240 276 8,900 -800 Descending Albuquerque Center
Wed 02:46:35 PM 31.8917 -106.0278 245° Southwest 241 277 8,600 -1,258 Descending Albuquerque Center
Wed 02:47:26 PM 31.8703 -106.0911 248° West 242 278 7,600 -1,082 Descending Albuquerque Center
Wed 02:47:36 PM 31.8669 -106.1017 250° West 242 278 7,500 -1,065 Descending Albuquerque Center
Wed 02:48:28 PM 31.8464 -106.1508 244° Southwest 203 234 6,500 -1,164 Descending Albuquerque Center
Wed 02:48:43 PM 31.8386 -106.1686 243° Southwest 195 224 6,200 -581 Descending Albuquerque Center
Wed 02:49:30 PM 31.8203 -106.2114 243° Southwest 194 223 5,900 -448 Descending Albuquerque Center
Wed 02:49:50 PM 31.8147 -106.2247 244° Southwest 174 200 5,700 -290 Descending Albuquerque Center
Wed 02:50:32 PM 31.8008 -106.2583 244° Southwest 166 191 5,600 -200 Descending Albuquerque Center
Wed 02:50:50 PM 31.7981 -106.2739 258° West 154 177 5,500 -581 Descending Albuquerque Center
Wed 02:51:34 PM 31.7969 -106.3086 268° West 155 178 5,000 -740 Descending Albuquerque Center
Wed 02:52:03 PM 31.7983 -106.3339 274° West 146 168 4,600 -871 Descending Albuquerque Center
Wed 02:52:36 PM 31.8019 -106.3592 280° West 147 169 4,100 -909 Descending Albuquerque Center
Wed 02:54:00 PM 31.8000 -106.3667 270° West  Level FlightAware Approximate
Wed 03:01:00 PM 31.8072 -106.3764 270° West  Level Estimated
Wed 03:02:00 PM 31.8072 -106.3764 270° West  Level Estimated
Wed 03:03:00 PM 31.8072 -106.3764 270° West  Level Estimated
Wed 03:04:00 PM 31.8072 -106.3764 270° West  Level Estimated
Wed 03:05:00 PM 31.8072 -106.3764 270° West  Level Estimated

Login

Don't have an account? Register now (free) for customized features, flight alerts, and more!